CYQR

Regina International Airport

Regina, Saskatchewan, Canada
METAR CYQR 170000Z 26008KT 15SM SKC M04/M07 A2990 RMK SLP160
Observed Flight Rules
Dec-17 @ 00:00 UTC (34 minutes ago) Visual Flight Rules
Wind Visibility Clouds
260° at 8 knots 15 miles
  • Clear skies
Temperatures Readings
Current -4°C / 25°F
Dewpoint -7°C / 19°F
Humidity 80%
Altimeter 29.9" Hg
Pressure 1016 hPa
Elevation 577
METAR CYQR 170000Z 26008KT 15SM SKC M04/M07 A2990 RMK SLP160
Observed Flight Rules
Dec-17 @ 00:00 UTC
(34 minutes ago)
VFR
Wind Visibility
260° at 8 knots 15 miles
Clouds
  • Clear skies
Temperature Dewpoint
-4°C / 25°F -7°C / 19°F
Humidity Altimeter Pressure
80% 29.9" Hg 1016 hPa